Time;durP1;ratioP1;P1;durP2;ratioP2;P2;SDS_P1;SDS_P2;PMS_P1;PMS_P2;Temp;Humidity;BMP_temperature;BMP_pressure;BME280_temperature;BME280_humidity;BME280_pressure;Samples;Min_cycle;Max_cycle;Signal;HPM_P1;HPM_P2
2022/11/16 00:01:16;;;;;;;20.83;8.88;;;;;;;0.80;66.96;99332.72;6194688;23;20020;-88
2022/11/16 00:03:42;;;;;;;18.42;8.30;;;;;;;0.53;66.90;99294.97;6195202;23;20016;-92
2022/11/16 00:06:10;;;;;;;18.67;7.80;;;;;;;0.60;66.46;99302.84;6194505;23;20079;-89
2022/11/16 00:08:40;;;;;;;14.98;7.10;;;;;;;0.60;66.39;99300.16;6195061;23;20265;-87
2022/11/16 00:11:14;;;;;;;16.10;7.40;;;;;;;0.59;66.51;99310.09;6195009;23;20062;-88
2022/11/16 00:13:42;;;;;;;17.45;7.97;;;;;;;0.58;66.58;99313.03;6220342;23;20016;-88
2022/11/16 00:18:40;;;;;;;13.52;6.85;;;;;;;0.29;66.79;99288.94;6247924;23;20399;-88
2022/11/16 00:21:07;;;;;;;15.60;5.95;;;;;;;0.15;67.33;99298.41;6244547;23;20074;-92
2022/11/16 00:23:39;;;;;;;11.80;6.32;;;;;;;0.19;67.91;99324.56;6195358;23;20533;-87
2022/11/16 00:26:07;;;;;;;16.20;7.25;;;;;;;0.21;68.00;99333.19;6197501;23;20019;-88
2022/11/16 00:28:34;;;;;;;17.50;6.65;;;;;;;0.10;68.29;99322.53;6202695;23;20012;-89
2022/11/16 00:31:04;;;;;;;17.48;7.63;;;;;;;0.11;68.26;99303.47;6195117;23;20027;-89
2022/11/16 00:33:30;;;;;;;18.15;6.85;;;;;;;0.25;68.04;99330.03;6219654;23;20043;-87
2022/11/16 00:35:56;;;;;;;19.77;7.10;;;;;;;0.06;68.21;99330.25;6194588;23;20016;-88
2022/11/16 00:38:22;;;;;;;19.20;7.17;;;;;;;-0.19;68.52;99297.59;6194710;23;20024;-88
2022/11/16 00:40:49;;;;;;;12.98;6.63;;;;;;;0.01;68.65;99322.13;6220105;23;20082;-88
2022/11/16 00:43:15;;;;;;;25.15;7.28;;;;;;;-0.10;68.74;99318.47;6223757;23;20066;-87
2022/11/16 00:45:42;;;;;;;16.02;7.38;;;;;;;0.01;68.58;99318.63;6201261;23;20016;-88
2022/11/16 00:48:09;;;;;;;17.85;6.93;;;;;;;-0.20;68.62;99304.81;6194490;23;20130;-90
2022/11/16 00:50:36;;;;;;;18.25;7.20;;;;;;;-0.37;68.72;99277.94;6193945;23;20101;-88
2022/11/16 00:53:05;;;;;;;15.05;7.00;;;;;;;0.06;68.75;99342.88;6244582;23;20099;-88
2022/11/16 00:55:32;;;;;;;16.20;6.95;;;;;;;0.02;68.83;99344.44;6244314;23;20512;-88
2022/11/16 00:57:59;;;;;;;18.45;7.32;;;;;;;-0.41;68.98;99284.88;6219424;23;20012;-88
2022/11/16 01:00:25;;;;;;;17.00;7.25;;;;;;;-0.26;68.94;99303.94;6193479;23;20023;-88
2022/11/16 01:02:53;;;;;;;17.75;8.07;;;;;;;-0.09;68.79;99325.44;6218656;23;20395;-89
2022/11/16 01:05:21;;;;;;;11.73;6.40;;;;;;;-0.10;69.31;99341.81;6194168;23;20020;-88
2022/11/16 01:07:47;;;;;;;16.08;7.28;;;;;;;-0.30;69.00;99304.66;6199523;23;20476;-88
2022/11/16 01:10:16;;;;;;;19.55;7.55;;;;;;;-0.27;68.98;99314.91;6200065;23;20204;-88
2022/11/16 01:12:44;;;;;;;19.38;7.80;;;;;;;-0.22;69.71;99309.66;6200882;23;20549;-88
2022/11/16 01:15:11;;;;;;;19.88;8.30;;;;;;;-0.23;69.28;99313.41;6200644;23;20074;-88
2022/11/16 01:17:39;;;;;;;19.33;7.90;;;;;;;-0.35;69.27;99288.47;6219652;23;20012;-88
2022/11/16 01:20:10;;;;;;;18.13;7.47;;;;;;;-0.55;69.72;99283.56;6218681;23;20358;-86
2022/11/16 01:22:38;;;;;;;18.45;7.85;;;;;;;-0.39;69.69;99315.00;6219200;23;20078;-86
2022/11/16 01:25:06;;;;;;;18.02;7.07;;;;;;;-0.54;69.48;99288.66;6219125;23;20082;-87
2022/11/16 01:27:33;;;;;;;15.80;6.80;;;;;;;-0.52;70.07;99313.41;6193916;23;20019;-88
2022/11/16 01:30:04;;;;;;;16.70;7.63;;;;;;;-0.39;70.03;99320.38;6219329;23;20040;-87
2022/11/16 01:32:34;;;;;;;16.83;7.93;;;;;;;-0.31;70.03;99333.38;6194043;23;20043;-88
2022/11/16 01:35:04;;;;;;;17.08;7.78;;;;;;;-0.31;69.93;99346.00;6194221;23;20044;-88
2022/11/16 01:37:33;;;;;;;15.27;7.55;;;;;;;-0.58;69.95;99295.56;6194450;23;20015;-88
2022/11/16 01:39:59;;;;;;;20.70;8.52;;;;;;;-0.72;70.06;99284.31;6193764;23;20529;-87
2022/11/16 01:45:26;;;;;;;17.83;7.53;;;;;;;-0.36;69.97;99343.25;6245869;23;20020;-88
2022/11/16 01:50:24;;;;;;;16.60;6.22;;;;;;;-0.50;69.78;99318.53;6245174;23;20020;-90
2022/11/16 01:52:56;;;;;;;19.77;7.63;;;;;;;-0.78;69.65;99290.63;6193985;23;20103;-87
2022/11/16 01:55:27;;;;;;;18.63;8.00;;;;;;;-0.60;69.94;99324.53;6219463;23;20024;-87
2022/11/16 01:58:23;;;;;;;17.58;7.88;;;;;;;-0.32;69.90;99337.13;6210525;23;20012;-88
2022/11/16 02:00:56;;;;;;;17.20;7.28;;;;;;;-0.59;69.27;99298.50;6224318;23;20019;-88
2022/11/16 02:03:48;;;;;;;14.90;7.05;;;;;;;-0.22;68.90;99341.06;6241567;23;20023;-88
2022/11/16 02:06:37;;;;;;;20.40;6.85;;;;;;;-0.38;68.99;99324.66;6218726;23;20024;-88
2022/11/16 02:09:53;;;;;;;18.73;7.32;;;;;;;-0.35;68.81;99326.88;6218462;23;20437;-87
2022/11/16 02:12:50;;;;;;;17.05;7.25;;;;;;;-0.28;69.41;99350.91;6194179;23;20070;-87
2022/11/16 02:15:35;;;;;;;23.00;8.02;;;;;;;-0.27;69.30;99352.53;6194280;23;20392;-88
2022/11/16 02:18:48;;;;;;;16.33;7.00;;;;;;;-0.42;68.95;99342.31;6221385;23;20023;-88
2022/11/16 02:21:19;;;;;;;25.00;7.35;;;;;;;-0.58;68.99;99316.25;6243404;23;20135;-88
2022/11/16 02:24:16;;;;;;;20.83;7.93;;;;;;;-0.38;69.40;99339.97;6219076;23;20141;-88
2022/11/16 02:27:15;;;;;;;16.88;6.97;;;;;;;-0.25;69.23;99361.16;6218225;23;20016;-88
2022/11/16 02:29:49;;;;;;;20.08;7.28;;;;;;;-0.37;69.10;99338.91;6218185;23;20020;-87
2022/11/16 02:32:26;;;;;;;24.63;8.23;;;;;;;-0.29;69.23;99354.66;6218432;23;20061;-88
2022/11/16 02:35:34;;;;;;;14.93;5.68;;;;;;;-0.73;69.06;99298.81;6218502;23;20047;-87
2022/11/16 02:38:13;;;;;;;15.50;7.55;;;;;;;-0.31;68.91;99364.81;6195458;23;20369;-88
2022/11/16 02:40:45;;;;;;;20.35;7.22;;;;;;;-0.56;68.64;99335.63;6193072;23;20020;-87
2022/11/16 02:43:25;;;;;;;15.40;6.93;;;;;;;-0.39;69.25;99360.66;6220247;23;20023;-87
2022/11/16 02:50:51;;;;;;;14.10;6.85;;;;;;;-0.77;68.71;99304.88;6247522;23;20036;-87
2022/11/16 02:53:20;;;;;;;18.23;7.72;;;;;;;-0.57;69.02;99352.75;6196050;23;20044;-87
2022/11/16 02:55:48;;;;;;;20.95;7.75;;;;;;;-0.54;68.71;99344.22;6196477;23;20024;-87
2022/11/16 02:58:24;;;;;;;15.85;7.35;;;;;;;-0.30;68.34;99372.66;6196233;23;20016;-87
2022/11/16 03:01:30;;;;;;;13.55;7.25;;;;;;;-0.35;68.63;99358.28;6199886;23;20016;-89
2022/11/16 03:04:18;;;;;;;12.17;6.50;;;;;;;-0.58;68.34;99332.34;6238132;23;20020;-87
2022/11/16 03:06:47;;;;;;;15.80;6.95;;;;;;;-0.54;67.86;99354.97;6195413;23;20088;-86
2022/11/16 03:09:20;;;;;;;14.07;7.03;;;;;;;-0.35;67.93;99380.59;6220365;23;20027;-87
2022/11/16 03:11:58;;;;;;;15.82;6.30;;;;;;;-0.73;68.11;99324.81;6220160;23;20623;-88
2022/11/16 03:14:34;;;;;;;17.73;5.57;;;;;;;-0.51;67.88;99382.16;6195147;23;20469;-87
2022/11/16 03:17:06;;;;;;;18.70;6.40;;;;;;;-0.80;67.85;99359.03;6194154;23;20757;-88
2022/11/16 03:19:42;;;;;;;22.23;6.13;;;;;;;-0.86;68.80;99363.50;6196844;23;20074;-87
2022/11/16 03:22:23;;;;;;;15.65;6.30;;;;;;;-0.85;68.49;99388.47;6220180;23;20147;-87
2022/11/16 03:24:50;;;;;;;12.93;5.32;;;;;;;-0.75;68.21;99389.47;6218945;23;20063;-88
2022/11/16 03:27:28;;;;;;;11.05;5.35;;;;;;;-1.08;68.56;99374.03;6193504;23;20027;-87
2022/11/16 03:30:15;;;;;;;13.52;6.45;;;;;;;-1.01;68.85;99365.84;6193639;23;20020;-88
2022/11/16 03:33:02;;;;;;;12.02;5.22;;;;;;;-0.79;69.25;99409.78;6219600;23;20031;-87
2022/11/16 03:35:42;;;;;;;12.75;5.50;;;;;;;-0.97;68.40;99386.59;6194948;23;20027;-86
2022/11/16 03:38:10;;;;;;;13.43;6.03;;;;;;;-0.91;68.38;99384.84;6195100;23;20044;-88
2022/11/16 03:40:45;;;;;;;10.23;5.85;;;;;;;-0.66;68.29;99410.56;6218924;23;20012;-87
2022/11/16 03:43:13;;;;;;;5.90;3.47;;;;;;;-0.77;68.51;99406.84;6169018;23;20110;-87
2022/11/16 03:46:00;;;;;;;10.10;4.85;;;;;;;-0.93;68.21;99392.31;6223236;23;20513;-87
2022/11/16 03:48:36;;;;;;;13.32;5.45;;;;;;;-1.12;68.38;99361.31;6210068;23;20454;-88
2022/11/16 03:51:09;;;;;;;14.85;5.93;;;;;;;-0.87;68.11;99396.72;6220251;23;20020;-87
2022/11/16 03:53:37;;;;;;;11.80;5.25;;;;;;;-1.01;68.36;99387.31;6220138;23;20023;-90
2022/11/16 03:56:12;;;;;;;17.02;6.97;;;;;;;-0.80;68.39;99413.50;6195334;23;20016;-88
2022/11/16 03:58:38;;;;;;;15.30;6.22;;;;;;;-0.87;68.41;99415.50;6196568;23;20016;-89
2022/11/16 04:01:04;;;;;;;14.63;6.32;;;;;;;-1.04;67.98;99382.41;6220037;23;20031;-88
2022/11/16 04:03:31;;;;;;;14.57;5.93;;;;;;;-1.30;68.09;99341.59;6196317;23;20146;-88
2022/11/16 04:25:30;;;;;;;11.30;5.18;;;;;;;-1.08;67.97;99413.44;6220833;23;20107;-86
2022/11/16 04:28:12;;;;;;;12.10;5.50;;;;;;;-1.33;67.81;99368.91;6195237;23;20016;-90
2022/11/16 04:39:03;;;;;;;17.90;6.50;;;;;;;-0.99;67.89;99433.50;6243028;23;20020;-83
2022/11/16 04:44:23;;;;;;;12.13;6.40;;;;;;;-1.25;67.87;99411.47;6197531;23;20016;-86
2022/11/16 04:47:07;;;;;;;15.10;6.50;;;;;;;-0.89;67.55;99443.63;6218776;23;20023;-86
2022/11/16 04:49:35;;;;;;;;;;;;;;;-0.85;67.60;99451.00;6243377;23;20097;-84
2022/11/16 04:52:02;;;;;;;12.57;6.22;;;;;;;-0.91;67.38;99445.75;6217749;23;19915;-85
2022/11/16 04:54:30;;;;;;;17.73;6.32;;;;;;;-1.12;67.33;99423.03;6217732;23;20019;-85
2022/11/16 04:56:56;;;;;;;19.50;7.35;;;;;;;-1.04;67.38;99436.06;6243921;23;20226;-86
2022/11/16 04:59:23;;;;;;;26.95;8.38;;;;;;;-1.33;67.76;99392.22;6243323;23;20096;-86
2022/11/16 05:02:08;;;;;;;21.45;9.27;;;;;;;-0.98;67.62;99441.31;6193063;23;20062;-83
2022/11/16 05:04:43;;;;;;;14.50;8.10;;;;;;;-1.11;67.78;99421.97;6194886;23;20015;-83
2022/11/16 05:07:12;;;;;;;12.65;6.50;;;;;;;-0.98;67.92;99457.41;6167887;23;20043;-83
2022/11/16 05:09:42;;;;;;;18.58;8.05;;;;;;;-1.18;67.50;99430.13;6243296;23;20020;-83
2022/11/16 05:12:29;;;;;;;15.95;7.93;;;;;;;-1.11;67.67;99440.75;6217358;23;20062;-82
2022/11/16 05:15:00;;;;;;;14.82;6.60;;;;;;;-0.91;67.33;99467.22;6217966;23;20012;-84
2022/11/16 05:17:30;;;;;;;12.18;7.40;;;;;;;-1.12;67.15;99433.75;6217995;23;20016;-83
2022/11/16 05:22:57;;;;;;;18.52;8.50;;;;;;;-1.28;68.00;99438.75;6218253;23;20015;-84
2022/11/16 05:25:25;;;;;;;25.73;8.25;;;;;;;-1.23;67.88;99444.22;6217684;23;20051;-84
2022/11/16 05:27:52;;;;;;;21.77;9.23;;;;;;;-1.17;67.43;99422.88;6168554;23;20046;-84
2022/11/16 05:30:19;;;;;;;20.00;9.18;;;;;;;-0.96;67.61;99457.16;6193018;23;20047;-83
2022/11/16 05:32:45;;;;;;;18.60;8.82;;;;;;;-1.04;67.36;99436.06;6168604;23;20024;-85
2022/11/16 05:35:13;;;;;;;18.90;8.15;;;;;;;-1.04;66.74;99436.06;6218282;23;20016;-86
2022/11/16 05:37:41;;;;;;;19.13;8.68;;;;;;;-1.01;66.87;99428.38;6169168;23;20101;-86
2022/11/16 05:40:08;;;;;;;21.00;8.85;;;;;;;-0.74;66.28;99466.25;6218891;23;20022;-85
2022/11/16 05:42:49;;;;;;;18.13;8.70;;;;;;;-0.97;66.24;99444.81;6193544;23;20015;-84
2022/11/16 05:45:18;;;;;;;22.98;9.73;;;;;;;-0.78;66.43;99462.41;6193483;23;20028;-85
2022/11/16 05:47:44;;;;;;;27.35;10.68;;;;;;;-1.34;66.67;99417.41;6193488;23;20074;-86
2022/11/16 05:50:10;;;;;;;23.80;10.13;;;;;;;-1.06;66.99;99468.50;6218336;23;20535;-85
2022/11/16 05:52:39;;;;;;;24.80;9.85;;;;;;;-1.42;66.99;99407.84;6230196;23;20016;-83
2022/11/16 05:55:10;;;;;;;24.42;8.68;;;;;;;-1.19;66.49;99444.59;6192608;23;20019;-84
2022/11/16 05:57:41;;;;;;;29.92;9.77;;;;;;;-1.35;66.25;99438.03;6216980;23;20020;-84
2022/11/16 06:00:08;;;;;;;16.77;9.40;;;;;;;-1.14;66.20;99473.38;6171676;23;20027;-83
2022/11/16 06:02:41;;;;;;;17.17;7.90;;;;;;;-0.95;65.40;99477.59;6242795;23;20024;-85
2022/11/16 06:05:13;;;;;;;19.80;7.28;;;;;;;-1.21;64.50;99407.25;6193222;23;20020;-85
2022/11/16 06:10:08;;;;;;;14.75;7.00;;;;;;;-1.06;64.40;99455.09;6245364;23;20359;-86
2022/11/16 06:12:35;;;;;;;18.87;7.57;;;;;;;-1.26;63.43;99423.25;6243620;23;20020;-86
2022/11/16 06:15:01;;;;;;;17.53;6.40;;;;;;;-1.45;62.92;99414.50;6243517;23;20250;-85
2022/11/16 06:17:32;;;;;;;17.40;6.20;;;;;;;-1.30;64.44;99461.47;6195845;23;20016;-93
2022/11/16 06:22:24;;;;;;;12.60;6.45;;;;;;;-1.22;63.50;99483.41;6248593;23;20475;-84
2022/11/16 06:24:51;;;;;;;13.95;6.15;;;;;;;-1.38;63.00;99470.69;6196304;23;20020;-87
2022/11/16 06:27:17;;;;;;;14.13;6.50;;;;;;;-1.58;63.07;99451.44;6246614;23;20047;-86
2022/11/16 06:29:44;;;;;;;16.33;6.38;;;;;;;-1.67;63.59;99450.94;6246672;23;20134;-87
2022/11/16 06:32:11;;;;;;;13.75;7.40;;;;;;;-1.78;63.64;99446.38;6248606;23;20030;-86
2022/11/16 06:34:39;;;;;;;21.58;7.80;;;;;;;-1.74;64.90;99453.72;6223382;23;20020;-87
2022/11/16 06:37:07;;;;;;;18.83;8.02;;;;;;;-1.54;64.01;99484.75;6225012;23;20012;-86
2022/11/16 06:39:33;;;;;;;17.67;6.95;;;;;;;-1.46;63.40;99466.47;6197303;23;20020;-85
2022/11/16 06:42:00;;;;;;;14.90;7.23;;;;;;;-1.55;63.42;99457.13;6196270;23;20455;-86
2022/11/16 06:44:27;;;;;;;;;;;;;;;-1.22;63.38;99499.50;6223193;23;20020;-86
2022/11/16 06:46:59;;;;;;;23.08;8.00;;;;;;;-1.51;63.40;99444.09;6247668;23;19922;-86
2022/11/16 06:49:26;;;;;;;21.95;8.73;;;;;;;-1.24;62.88;99471.28;6248616;23;20023;-86
2022/11/16 06:51:56;;;;;;;19.23;9.05;;;;;;;-1.06;62.39;99495.34;6197966;23;20020;-85
2022/11/16 06:54:24;;;;;;;19.77;8.93;;;;;;;-1.17;62.45;99465.81;6247323;23;20023;-85
2022/11/16 06:56:50;;;;;;;19.52;9.10;;;;;;;-1.32;62.46;99437.59;6247793;23;20016;-85
2022/11/16 06:59:16;;;;;;;20.38;8.95;;;;;;;-0.90;62.24;99480.38;6246666;23;20016;-86
2022/11/16 07:01:45;;;;;;;21.15;8.30;;;;;;;-1.11;62.22;99457.66;6221801;23;20020;-85
2022/11/16 07:04:14;;;;;;;22.33;8.45;;;;;;;-1.26;61.49;99439.34;6249287;22;20373;-86
2022/11/16 07:06:48;;;;;;;19.05;9.20;;;;;;;-1.24;62.22;99449.81;6247961;23;20450;-86
2022/11/16 07:09:15;;;;;;;;;;;;;;;-0.83;62.55;99507.94;6231489;23;20027;-87
2022/11/16 07:11:43;;;;;;;;;;;;;;;-0.74;62.02;99508.38;6198589;23;20357;-85
2022/11/16 07:14:11;;;;;;;19.77;8.30;;;;;;;-0.83;61.66;99507.94;6222080;23;19946;-86
2022/11/16 07:16:37;;;;;;;24.80;9.05;;;;;;;-0.90;62.55;99491.13;6197080;23;20020;-86
2022/11/16 07:19:05;;;;;;;23.52;8.27;;;;;;;-0.97;62.34;99469.78;6222735;23;20012;-86
2022/11/16 07:21:33;;;;;;;28.48;9.00;;;;;;;-0.87;61.73;99485.28;6173333;23;20024;-86
2022/11/16 07:24:03;;;;;;;18.83;8.48;;;;;;;-0.80;61.71;99477.91;6197761;23;20067;-87
2022/11/16 07:26:32;;;;;;;18.00;8.93;;;;;;;-0.35;61.18;99514.88;6172351;23;20020;-85
2022/11/16 07:29:07;;;;;;;24.85;9.02;;;;;;;-0.80;60.77;99439.53;6222556;23;20016;-85
2022/11/16 07:31:37;;;;;;;17.27;8.50;;;;;;;-0.52;60.48;99477.22;6225469;23;20102;-85
2022/11/16 07:44:09;;;;;;;34.30;9.30;;;;;;;-0.10;60.14;99516.44;6159673;23;20020;-85
2022/11/16 07:47:23;;;;;;;17.67;7.90;;;;;;;-0.03;59.78;99523.34;6100072;23;20017;-86
2022/11/16 07:50:18;;;;;;;20.98;8.98;;;;;;;-0.18;59.86;99508.78;6065413;23;20074;-85
2022/11/16 07:52:45;;;;;;;19.52;7.93;;;;;;;-0.33;60.51;99496.66;6017934;23;20435;-85
2022/11/16 07:55:34;;;;;;;;;;;;;;;;;;;;;
2022/11/16 07:58:28;;;;;;;18.30;8.43;;;;;;;-0.12;59.54;99472.91;6068839;23;20018;-84
2022/11/16 08:01:31;;;;;;;18.58;8.48;;;;;;;-0.19;59.70;99464.16;6044925;23;20101;-86
2022/11/16 08:04:34;;;;;;;23.48;9.55;;;;;;;-0.01;60.01;99488.16;6065613;23;20045;-86
2022/11/16 08:10:28;;;;;;;22.02;8.60;;;;;;;0.16;59.78;99475.56;6056082;23;20029;-85
2022/11/16 08:13:39;;;;;;;19.10;8.90;;;;;;;0.47;59.24;99503.03;6041638;23;20022;-85
2022/11/16 08:16:36;;;;;;;20.67;8.05;;;;;;;0.21;60.04;99481.06;6041823;23;20108;-84
2022/11/16 08:19:29;;;;;;;14.45;6.13;;;;;;;0.38;58.90;99493.72;6019365;23;20026;-86
2022/11/16 08:22:29;;;;;;;14.68;7.15;;;;;;;0.21;59.60;99472.19;6065632;23;20362;-86
2022/11/16 08:33:16;;;;;;;;;;;;;;;;;;;;;
2022/11/16 08:36:04;;;;;;;12.80;6.30;;;;;;;0.86;58.05;99503.97;6041866;23;20018;-91
2022/11/16 08:38:40;;;;;;;16.17;7.15;;;;;;;0.99;58.45;99512.75;6065388;23;20046;-85
2022/11/16 08:42:00;;;;;;;21.23;7.82;;;;;;;0.88;58.46;99515.28;6041087;23;20635;-86
2022/11/16 08:45:06;;;;;;;28.05;8.60;;;;;;;0.98;58.32;99514.63;6044293;23;20373;-86
2022/11/16 08:51:03;;;;;;;31.10;7.82;;;;;;;0.57;57.74;99495.13;5985539;23;20076;-85
2022/11/16 08:56:17;;;;;;;15.80;7.00;;;;;;;0.30;58.18;99451.06;6064771;23;20058;-85
2022/11/16 09:03:15;;;;;;;17.60;5.93;;;;;;;0.60;56.87;99496.53;5978708;23;20404;-85
2022/11/16 09:06:25;;;;;;;21.60;7.45;;;;;;;0.63;57.62;99491.47;5960634;23;20023;-84
2022/11/16 09:14:54;;;;;;;21.88;8.23;;;;;;;0.71;57.68;99498.31;5984001;23;20026;-89
2022/11/16 09:20:32;;;;;;;18.75;6.90;;;;;;;0.59;58.36;99460.72;6008253;23;20159;-86
2022/11/16 09:23:37;;;;;;;17.42;7.07;;;;;;;0.84;57.04;99494.50;5980182;24;20016;-86
2022/11/16 09:26:27;;;;;;;21.17;6.95;;;;;;;0.92;56.17;99494.88;5956890;24;20534;-87
2022/11/16 09:32:32;;;;;;;26.67;11.63;;;;;;;0.37;57.00;99451.75;5925114;24;20021;-87
2022/11/16 09:35:20;;;;;;;19.55;7.03;;;;;;;0.75;57.18;99488.69;5870224;24;20033;-88
2022/11/16 09:38:23;;;;;;;16.13;6.18;;;;;;;0.92;56.68;99491.38;5849860;24;20026;-87
2022/11/16 09:41:38;;;;;;;12.57;6.18;;;;;;;1.11;56.57;99484.69;5907023;24;20314;-87
2022/11/16 09:44:52;;;;;;;12.20;5.53;;;;;;;1.40;55.79;99500.72;5927942;24;20021;-86
2022/11/16 09:51:06;;;;;;;9.90;5.68;;;;;;;1.31;55.77;99504.91;6012328;23;20023;-88
2022/11/16 09:54:17;;;;;;;12.18;5.75;;;;;;;1.15;55.29;99455.38;6012566;23;20102;-87
2022/11/16 09:57:01;;;;;;;10.77;5.55;;;;;;;1.24;54.81;99453.91;6188076;23;20115;-91
2022/11/16 10:04:10;;;;;;;10.73;5.40;;;;;;;1.51;54.88;99502.50;6215418;23;20035;-87
2022/11/16 10:07:13;;;;;;;8.55;4.25;;;;;;;1.62;54.33;99515.06;6217659;23;20031;-89
2022/11/16 10:10:12;;;;;;;19.70;5.63;;;;;;;1.58;54.75;99499.63;6194459;23;20021;-87
2022/11/16 10:13:14;;;;;;;9.35;4.20;;;;;;;1.38;52.93;99484.81;6159214;23;20023;-88
2022/11/16 10:16:47;;;;;;;7.57;3.50;;;;;;;1.51;53.68;99507.06;6139582;23;20032;-89
2022/11/16 10:20:04;;;;;;;10.93;3.63;;;;;;;1.42;52.68;99498.59;6098616;23;20161;-87
2022/11/16 10:23:10;;;;;;;13.82;4.45;;;;;;;1.31;52.68;99504.91;5956288;24;20057;-86
2022/11/16 10:26:15;;;;;;;9.23;3.92;;;;;;;1.30;53.60;99508.66;6099475;23;20044;-85
2022/11/16 10:29:07;;;;;;;10.73;4.25;;;;;;;1.47;53.96;99503.25;6135554;23;20140;-84
2022/11/16 10:32:53;;;;;;;6.93;3.30;;;;;;;1.49;52.42;99499.25;6072937;23;20082;-88
2022/11/16 10:36:15;;;;;;;7.50;3.55;;;;;;;1.25;52.35;99447.44;6008872;23;20087;-88
2022/11/16 10:39:03;;;;;;;;;;;;;;;;;;;;;
2022/11/16 10:45:22;;;;;;;7.60;3.67;;;;;;;1.53;52.37;99461.84;6015097;23;20035;-88
2022/11/16 10:49:14;;;;;;;6.47;3.42;;;;;;;1.85;51.83;99499.69;5968692;23;20061;-88
2022/11/16 10:55:45;;;;;;;11.57;3.50;;;;;;;1.72;51.50;99506.25;5975365;23;20039;-86
2022/11/16 10:59:19;;;;;;;8.00;3.60;;;;;;;1.65;51.28;99473.28;5951223;24;20005;-87
2022/11/16 11:03:13;;;;;;;;;;;;;;;;;;;;;
2022/11/16 11:05:51;;;;;;;8.68;3.45;;;;;;;1.67;52.12;99473.88;5858028;24;20112;-87
2022/11/16 11:09:17;;;;;;;6.63;3.40;;;;;;;1.69;52.08;99468.22;5881956;24;20021;-87
2022/11/16 11:13:43;;;;;;;11.95;4.10;;;;;;;1.94;51.48;99502.75;6012165;23;20144;-88
2022/11/16 11:16:53;;;;;;;14.27;4.72;;;;;;;1.89;50.66;99506.22;5916787;24;20033;-87
2022/11/16 11:20:23;;;;;;;8.43;4.60;;;;;;;1.87;51.62;99503.75;5906523;24;20101;-87
2022/11/16 11:23:37;;;;;;;8.90;4.80;;;;;;;1.83;51.61;99509.91;5944917;24;20025;-87
2022/11/16 11:26:34;;;;;;;8.52;3.92;;;;;;;1.68;52.36;99518.59;5901341;24;20025;-91
2022/11/16 11:29:25;;;;;;;15.13;4.60;;;;;;;1.29;52.36;99472.00;5942247;24;20041;-92
2022/11/16 11:32:00;;;;;;;14.30;5.70;;;;;;;1.61;53.42;99505.31;5910012;24;20105;-84
2022/11/16 11:34:37;;;;;;;14.15;5.97;;;;;;;1.56;53.36;99507.16;5915743;24;20020;-88
2022/11/16 11:37:10;;;;;;;18.40;5.90;;;;;;;1.50;52.94;99500.88;5915906;24;20111;-94
2022/11/16 11:39:36;;;;;;;19.50;6.88;;;;;;;1.56;53.73;99502.56;5963934;24;20029;-92
2022/11/16 11:42:19;;;;;;;21.17;8.52;;;;;;;1.52;53.45;99514.88;5970791;24;20020;-90
2022/11/16 11:45:08;;;;;;;19.17;6.25;;;;;;;1.24;51.76;99461.19;5963451;24;20035;-86
2022/11/16 11:47:40;;;;;;;;;;;;;;;1.51;50.87;99518.66;5935331;24;20105;-86
2022/11/16 11:50:46;;;;;;;15.50;5.20;;;;;;;0.90;50.45;99455.84;5958418;24;19957;-87
2022/11/16 11:53:48;;;;;;;13.45;5.70;;;;;;;1.08;51.93;99504.03;6015662;23;20022;-89
2022/11/16 11:56:14;;;;;;;9.10;4.30;;;;;;;0.76;52.17;99473.38;5946733;23;20026;-89
2022/11/16 11:58:41;;;;;;;8.60;5.30;;;;;;;1.03;51.40;99498.59;6049650;23;20019;-92
2022/11/16 12:01:13;;;;;;;;;;;;;;;1.38;51.64;99527.91;6046017;23;20078;-89
2022/11/16 12:04:07;;;;;;;13.27;5.65;;;;;;;1.40;52.72;99509.63;6048269;23;19917;-91
2022/11/16 12:07:08;;;;;;;16.17;4.78;;;;;;;1.63;50.67;99526.63;6022562;23;20030;-85
2022/11/16 12:09:52;;;;;;;9.90;4.45;;;;;;;1.49;50.31;99528.88;6053430;23;20023;-84
2022/11/16 12:12:32;;;;;;;9.32;4.85;;;;;;;1.35;50.20;99527.56;6025634;23;20018;-94
2022/11/16 12:15:28;;;;;;;10.13;4.75;;;;;;;1.26;49.97;99526.34;6073347;23;20022;-93
2022/11/16 12:18:20;;;;;;;11.02;5.10;;;;;;;0.93;49.91;99476.88;6012345;23;20014;-88
2022/11/16 12:21:05;;;;;;;13.05;5.55;;;;;;;1.28;50.83;99518.84;6058273;23;20087;-86
2022/11/16 12:23:43;;;;;;;12.07;4.97;;;;;;;1.27;50.88;99515.34;6023940;23;20114;-90
2022/11/16 12:26:09;;;;;;;13.65;5.15;;;;;;;1.22;51.53;99512.56;6047799;23;20339;-93
2022/11/16 12:29:08;;;;;;;22.63;4.57;;;;;;;0.96;50.91;99471.03;6077782;23;20025;-92
2022/11/16 12:32:00;;;;;;;14.10;5.50;;;;;;;1.12;51.76;99513.22;6081184;23;20018;-95
2022/11/16 12:34:35;;;;;;;12.13;5.50;;;;;;;0.77;51.42;99429.28;6256864;23;20016;-93
2022/11/16 12:37:39;;;;;;;16.00;6.05;;;;;;;1.22;50.80;99507.19;6230128;23;20020;-94
2022/11/16 12:40:39;;;;;;;9.65;5.35;;;;;;;1.18;50.94;99501.47;6228649;23;20020;-85
2022/11/16 12:44:03;;;;;;;21.65;5.32;;;;;;;0.56;51.44;99417.38;6247152;23;20020;-92
2022/11/16 12:47:03;;;;;;;10.57;5.05;;;;;;;1.21;51.49;99497.50;6130688;23;20022;-93
2022/11/16 12:49:47;;;;;;;13.15;5.15;;;;;;;1.31;50.71;99499.50;6101044;23;20022;-87
2022/11/16 12:52:48;;;;;;;14.73;5.10;;;;;;;1.34;50.47;99490.94;6053460;23;20388;-86
2022/11/16 12:55:32;;;;;;;11.73;5.55;;;;;;;1.38;49.53;99506.34;6083431;23;20018;-89
2022/11/16 12:58:33;;;;;;;10.73;4.15;;;;;;;1.05;49.83;99490.25;6082724;23;20029;-95
2022/11/16 13:01:05;;;;;;;13.80;4.90;;;;;;;1.20;50.22;99505.81;6111961;23;20005;-93
2022/11/16 13:03:41;;;;;;;13.48;4.47;;;;;;;0.87;49.22;99459.03;6106056;23;20018;-87
2022/11/16 13:06:14;;;;;;;14.68;4.72;;;;;;;1.16;49.71;99505.50;6055665;23;20022;-93
2022/11/16 13:09:03;;;;;;;9.75;5.30;;;;;;;1.08;49.57;99503.22;6106390;23;20533;-94
2022/11/16 13:11:37;;;;;;;11.68;4.50;;;;;;;0.76;49.86;99482.25;6081646;23;20022;-92
2022/11/16 13:14:09;;;;;;;10.65;4.88;;;;;;;0.73;49.93;99490.84;6081554;23;20037;-93
2022/11/16 13:16:37;;;;;;;14.15;5.20;;;;;;;0.63;51.55;99504.94;6107696;23;20026;-85
2022/11/16 13:19:09;;;;;;;12.73;5.97;;;;;;;0.51;51.07;99487.22;6129596;23;20017;-94
2022/11/16 13:21:58;;;;;;;15.38;5.22;;;;;;;0.45;50.68;99507.81;6195766;23;20043;-91
2022/11/16 13:24:34;;;;;;;16.27;5.65;;;;;;;0.33;51.00;99490.94;6226523;23;20016;-93
2022/11/16 13:27:41;;;;;;;11.68;5.10;;;;;;;0.46;51.25;99512.13;6224925;23;20016;-92
2022/11/16 13:30:47;;;;;;;16.58;5.55;;;;;;;0.52;50.95;99505.78;6198156;23;20054;-86
2022/11/16 13:33:32;;;;;;;13.73;5.40;;;;;;;0.45;51.47;99513.22;6193998;23;20058;-87
2022/11/16 13:36:45;;;;;;;12.25;5.80;;;;;;;0.09;52.42;99509.84;6179736;23;20019;-90
2022/11/16 13:39:18;;;;;;;13.88;6.00;;;;;;;-0.06;53.47;99528.38;6215859;23;20439;-93
2022/11/16 13:42:06;;;;;;;12.32;5.97;;;;;;;-0.20;53.20;99468.69;6201683;23;20012;-95
2022/11/16 13:44:33;;;;;;;15.35;6.65;;;;;;;0.03;53.19;99521.56;6223012;23;20453;-89
2022/11/16 13:47:17;;;;;;;25.75;7.10;;;;;;;0.14;53.64;99523.41;6220534;23;20012;-87
2022/11/16 13:49:58;;;;;;;20.20;7.43;;;;;;;0.11;53.41;99533.81;6198420;23;20016;-92
2022/11/16 13:52:48;;;;;;;21.75;6.57;;;;;;;0.11;52.81;99520.38;6204561;23;20046;-93
2022/11/16 13:55:28;;;;;;;22.42;7.50;;;;;;;-0.07;53.31;99502.53;6229486;23;20027;-88
2022/11/16 13:57:57;;;;;;;25.20;8.18;;;;;;;-0.20;53.95;99494.75;6225145;23;20020;-87
2022/11/16 14:00:37;;;;;;;20.77;7.82;;;;;;;-0.48;53.52;99499.84;6193259;23;20021;-86
2022/11/16 14:03:15;;;;;;;17.63;8.13;;;;;;;-0.22;53.84;99529.94;6220585;23;20017;-92
2022/11/16 14:05:44;;;;;;;24.27;8.40;;;;;;;-0.45;53.91;99487.81;6226158;23;20052;-92
2022/11/16 14:08:23;;;;;;;27.42;8.98;;;;;;;-0.13;54.50;99530.34;6224887;23;20027;-93
2022/11/16 14:10:50;;;;;;;20.33;7.47;;;;;;;-0.03;54.44;99535.97;6222834;23;20043;-93
2022/11/16 14:13:55;;;;;;;21.30;8.95;;;;;;;-0.02;54.11;99534.91;6231531;23;20017;-92
2022/11/16 14:16:21;;;;;;;16.95;7.78;;;;;;;0.03;54.57;99535.00;6086409;23;20018;-91
2022/11/16 14:18:55;;;;;;;24.88;8.32;;;;;;;0.03;54.38;99543.06;6082797;23;20021;-85
2022/11/16 14:21:39;;;;;;;25.95;8.48;;;;;;;0.09;54.63;99544.78;6077510;23;20029;-86
2022/11/16 14:24:21;;;;;;;23.95;8.23;;;;;;;0.09;54.18;99539.41;6106373;23;20014;-89
2022/11/16 14:27:09;;;;;;;23.17;9.25;;;;;;;0.07;53.58;99540.72;6102801;23;20022;-91
2022/11/16 14:29:56;;;;;;;31.00;10.85;;;;;;;0.08;54.81;99548.53;6129572;23;20476;-93
2022/11/16 14:32:27;;;;;;;35.53;12.15;;;;;;;-0.37;54.43;99481.25;6077421;23;20065;-89